Aérodrome :
LOGIN :

S'inscrire | Disclaimer

   EN    FR    IT 

 










Légende :    VFR   VFR Marginal   IFR   IFR Intensif   IFR Très Intensif
Visi : 
Plafond : 
>= 8 km
>= 3000ft
5 à 8 km
1000 à 3000 ft
1500m à 5 km
500 à 1000 ft
800 à 1500m
200 à 500 ft
< 800m
< 200 ft
Symboles :   Orages  Brouillard  Fortes neiges  Fortes précipitations  Vent > 20 kt
SIGMETs :   Divers  Orages  Givrage  Turbulence  Onde Orograph.  Cendres Volcan.







- Altitude de l'aérodrome : 47 ft
- Code IATA : BDS


LIBR - Casale Arpt. Brindisi

DERNIER METAR :
  • 292045Z 34018G28KT CAVOK 14/13 Q1013 NOSIG

METARs EXPIRÉS :
  • 292015Z 34013G23KT 9999 FEW040 14/13 Q1013 NOSIG
  • 291945Z 34013G23KT 9999 FEW040 14/14 Q1013 NOSIG
  • 291915Z 34012KT 9999 FEW040 14/14 Q1013 NOSIG
  • 291845Z 34012G24KT 9999 SCT015 SCT025 15/14 Q1013 NOSIG
  • 291815Z 35012G22KT 9999 SCT015 SCT030 15/14 Q1013 NOSIG

TAF TAF LIBR
Valide du 29 à 18h jusqu'au 30 à 18h UTC


291700Z 2918/3018 32013KT 9999 SCT020 SCT030
TEMPO 2918/3000 32015G25KT
TEMPO 3000/3009 33018G32KT
Pas de NOTAMs connus pour ce terrain.



MET'MAP, la Météo Aéronautique d'un coup d'oeil ! - Copyright ORBIFLY Décembre 2007 - Disclaimer

ORBIFLY MET'MAP TEAM :

Programmation & Développement : Alexandra Zaïnal
Conception & Développement : Baudouin d'Aumeries
Co-Programmation & Développement : Marc-Olivier Méhu
Soutien technique & logistique : Manuel Goepfert

Contact : metmap@orbifly.com




SOURCES & CREDITS :

   NOAA